createdAt,value
2023-02-02T00:01:24.290Z,1.40
2023-02-02T00:03:51.373Z,1.47
2023-02-02T00:06:19.677Z,1.60
2023-02-02T00:08:46.767Z,3.13
2023-02-02T00:11:13.307Z,2.03
2023-02-02T00:13:42.241Z,2.13
2023-02-02T00:16:27.241Z,1.97
2023-02-02T00:18:55.801Z,2.57
2023-02-02T00:21:23.070Z,2.60
2023-02-02T00:23:49.720Z,2.60
2023-02-02T00:26:21.765Z,2.53
2023-02-02T00:28:48.724Z,1.97
2023-02-02T00:31:15.351Z,2.00
2023-02-02T00:33:47.299Z,2.30
2023-02-02T00:36:14.565Z,2.03
2023-02-02T00:38:43.508Z,1.37
2023-02-02T00:41:10.442Z,6.67
2023-02-02T00:43:36.935Z,2.60
2023-02-02T00:46:04.093Z,1.93
2023-02-02T00:48:30.713Z,1.57
2023-02-02T00:50:57.479Z,2.10
2023-02-02T00:53:23.945Z,2.00
2023-02-02T00:55:50.529Z,1.60
2023-02-02T00:58:17.019Z,1.17
2023-02-02T01:00:43.623Z,1.43
2023-02-02T01:03:10.488Z,1.90
2023-02-02T01:05:37.175Z,1.40
2023-02-02T01:08:03.768Z,1.53
2023-02-02T01:10:30.493Z,1.60
2023-02-02T01:12:57.064Z,1.90
2023-02-02T01:15:23.884Z,1.60
2023-02-02T01:17:50.613Z,1.50
2023-02-02T01:20:20.187Z,1.50
2023-02-02T01:22:47.354Z,1.47
2023-02-02T01:25:14.256Z,1.90
2023-02-02T01:27:40.930Z,1.60
2023-02-02T01:30:08.257Z,1.70
2023-02-02T01:32:35.409Z,2.13
2023-02-02T01:35:02.000Z,1.60
2023-02-02T01:37:28.550Z,1.67
2023-02-02T01:39:55.334Z,1.50
2023-02-02T01:42:23.448Z,1.83
2023-02-02T01:44:53.381Z,1.67
2023-02-02T01:47:22.527Z,1.60
2023-02-02T01:49:49.162Z,1.70
2023-02-02T01:52:18.358Z,1.63
2023-02-02T01:54:51.382Z,1.47
2023-02-02T01:57:26.611Z,1.30
2023-02-02T01:59:54.613Z,1.30
2023-02-02T02:02:21.393Z,1.57
2023-02-02T02:04:49.642Z,1.10
2023-02-02T02:07:16.426Z,1.20
2023-02-02T02:09:43.019Z,1.63
2023-02-02T02:12:15.368Z,1.40
2023-02-02T02:15:05.608Z,1.10
2023-02-02T02:17:41.445Z,1.33
2023-02-02T02:21:01.470Z,1.50
2023-02-02T02:24:11.313Z,1.80
2023-02-02T02:27:02.075Z,1.63
2023-02-02T02:29:30.290Z,1.23
2023-02-02T02:32:05.051Z,1.00
2023-02-02T02:34:55.601Z,1.30
2023-02-02T02:37:27.822Z,1.40
2023-02-02T02:40:18.810Z,1.43
2023-02-02T02:42:50.043Z,1.20
2023-02-02T02:45:17.359Z,1.70
2023-02-02T02:47:44.120Z,1.40
2023-02-02T02:50:11.284Z,1.53
2023-02-02T02:52:38.463Z,1.27
2023-02-02T02:55:06.613Z,1.20
2023-02-02T02:58:35.504Z,1.67
2023-02-02T03:01:10.232Z,1.87
2023-02-02T03:04:17.255Z,1.63
2023-02-02T03:07:00.817Z,1.37
2023-02-02T03:09:32.918Z,1.30
2023-02-02T03:12:00.518Z,1.27
2023-02-02T03:14:27.152Z,1.10
2023-02-02T03:16:54.222Z,1.00
2023-02-02T03:19:21.043Z,1.20
2023-02-02T03:21:47.518Z,1.40
2023-02-02T03:24:18.531Z,1.00
2023-02-02T03:26:45.335Z,1.20
2023-02-02T03:29:14.009Z,0.93
2023-02-02T03:31:40.591Z,1.13
2023-02-02T03:34:07.639Z,1.20
2023-02-02T03:36:35.268Z,1.10
2023-02-02T03:39:01.929Z,1.30
2023-02-02T03:41:28.444Z,1.10
2023-02-02T03:43:54.957Z,1.80
2023-02-02T03:46:21.664Z,1.20
2023-02-02T03:48:50.020Z,1.30
2023-02-02T03:51:18.228Z,1.00
2023-02-02T03:53:44.805Z,1.10
2023-02-02T03:56:11.343Z,1.40
2023-02-02T03:58:38.019Z,1.40
2023-02-02T04:01:11.404Z,1.10
2023-02-02T04:03:38.503Z,1.33
2023-02-02T04:06:05.207Z,1.50
2023-02-02T04:08:32.478Z,1.10
2023-02-02T04:10:59.662Z,1.30
2023-02-02T04:13:26.323Z,1.50
2023-02-02T04:16:00.939Z,1.20
2023-02-02T04:18:29.261Z,1.43
2023-02-02T04:21:00.100Z,1.50
2023-02-02T04:23:27.214Z,1.60
2023-02-02T04:25:53.828Z,1.20
2023-02-02T04:28:22.133Z,1.20
2023-02-02T04:30:48.783Z,1.57
2023-02-02T04:33:15.323Z,1.10
2023-02-02T04:35:43.349Z,1.70
2023-02-02T04:38:11.739Z,1.10
2023-02-02T04:40:40.783Z,1.20
2023-02-02T04:43:08.548Z,1.33
2023-02-02T04:45:35.856Z,1.23
2023-02-02T04:48:02.515Z,1.80
2023-02-02T04:50:29.909Z,1.47
2023-02-02T04:52:56.679Z,1.50
2023-02-02T04:55:24.341Z,1.00
2023-02-02T04:57:51.218Z,1.13
2023-02-02T05:00:18.974Z,1.20
2023-02-02T05:02:45.695Z,1.13
2023-02-02T05:05:14.513Z,1.20
2023-02-02T05:07:43.356Z,1.23
2023-02-02T05:10:10.922Z,1.47
2023-02-02T05:12:37.762Z,1.63
2023-02-02T05:15:05.600Z,1.83
2023-02-02T05:17:32.587Z,1.57
2023-02-02T05:19:59.090Z,1.30
2023-02-02T05:22:26.064Z,2.30
2023-02-02T05:24:52.536Z,1.83
2023-02-02T05:27:20.693Z,1.60
2023-02-02T05:29:48.243Z,1.23
2023-02-02T05:32:15.203Z,2.60
2023-02-02T05:34:47.818Z,1.90
2023-02-02T05:37:14.348Z,3.43
2023-02-02T05:39:40.848Z,2.07
2023-02-02T05:42:07.376Z,1.77
2023-02-02T05:44:34.275Z,1.97
2023-02-02T05:47:00.863Z,3.70
2023-02-02T05:49:31.346Z,2.80
2023-02-02T05:51:59.118Z,1.47
2023-02-02T05:54:25.696Z,3.53
2023-02-02T05:56:56.006Z,2.73
2023-02-02T05:59:23.036Z,2.13
2023-02-02T06:01:50.319Z,2.10
2023-02-02T06:04:17.084Z,1.70
2023-02-02T06:06:43.986Z,1.30
2023-02-02T06:09:10.672Z,1.97
2023-02-02T06:11:37.303Z,2.00
2023-02-02T06:14:03.867Z,1.83
2023-02-02T06:16:30.669Z,2.43
2023-02-02T06:18:58.614Z,2.00
2023-02-02T06:21:25.099Z,1.50
2023-02-02T06:23:52.595Z,1.10
2023-02-02T06:26:19.529Z,1.25
2023-02-02T06:28:51.301Z,1.50
2023-02-02T06:31:19.770Z,1.30
2023-02-02T06:33:48.762Z,1.10
2023-02-02T06:36:15.801Z,1.33
2023-02-02T06:38:42.316Z,1.83
2023-02-02T06:41:08.786Z,1.50
2023-02-02T06:43:35.769Z,2.37
2023-02-02T06:46:02.465Z,3.13
2023-02-02T06:48:29.093Z,2.63
2023-02-02T06:50:59.800Z,2.77
2023-02-02T06:53:28.198Z,4.60
2023-02-02T06:56:01.034Z,1.40
2023-02-02T06:58:28.275Z,1.40
2023-02-02T07:00:54.927Z,3.83
2023-02-02T07:03:22.364Z,2.30
2023-02-02T07:05:50.506Z,1.57
2023-02-02T07:08:17.127Z,1.33
2023-02-02T07:11:11.960Z,1.70
2023-02-02T07:13:32.070Z,1.80
2023-02-02T07:15:58.709Z,1.87
2023-02-02T07:18:25.489Z,1.83
2023-02-02T07:20:53.090Z,1.80
2023-02-02T07:23:19.621Z,1.60
2023-02-02T07:25:46.208Z,1.13
2023-02-02T07:28:14.282Z,1.20
2023-02-02T07:30:43.061Z,1.10
2023-02-02T07:33:09.684Z,1.23
2023-02-02T07:35:37.288Z,1.73
2023-02-02T07:38:05.840Z,1.40
2023-02-02T07:40:33.110Z,1.87
2023-02-02T07:43:01.077Z,1.70
2023-02-02T07:45:28.170Z,1.20
2023-02-02T07:47:58.748Z,1.30
2023-02-02T07:50:25.874Z,1.17
2023-02-02T07:52:53.165Z,1.43
2023-02-02T07:55:21.693Z,1.30
2023-02-02T07:57:48.399Z,2.37
2023-02-02T08:00:18.877Z,2.77
2023-02-02T08:02:48.962Z,1.20
2023-02-02T08:05:17.572Z,1.47
2023-02-02T08:07:50.257Z,2.13
2023-02-02T08:10:17.405Z,1.73
2023-02-02T08:12:44.419Z,1.33
2023-02-02T08:15:12.561Z,1.20
2023-02-02T08:17:39.136Z,1.23
2023-02-02T08:20:06.835Z,1.50
2023-02-02T08:22:33.408Z,2.20
2023-02-02T08:25:00.826Z,1.47
2023-02-02T08:27:27.390Z,1.80
2023-02-02T08:29:56.940Z,1.33
2023-02-02T08:32:24.746Z,1.30
2023-02-02T08:34:54.549Z,1.87
2023-02-02T08:37:21.107Z,1.37
2023-02-02T08:39:49.238Z,1.20
2023-02-02T08:42:15.933Z,1.20
2023-02-02T08:46:03.006Z,1.60
2023-02-02T08:47:32.639Z,1.30
2023-02-02T08:49:59.900Z,1.67
2023-02-02T08:52:30.515Z,2.03
2023-02-02T08:54:57.128Z,1.87
2023-02-02T08:57:25.876Z,1.57
2023-02-02T08:59:52.763Z,1.30
2023-02-02T09:02:23.274Z,1.70
2023-02-02T09:04:51.129Z,1.50
2023-02-02T09:07:19.342Z,1.50
2023-02-02T09:09:47.630Z,1.50
2023-02-02T09:12:14.477Z,1.50
2023-02-02T09:14:41.123Z,1.87
2023-02-02T09:17:08.208Z,1.70
2023-02-02T09:19:34.765Z,1.53
2023-02-02T09:22:01.591Z,1.37
2023-02-02T09:24:28.112Z,1.30
2023-02-02T09:26:55.322Z,1.30
2023-02-02T09:29:22.291Z,1.23
2023-02-02T09:31:49.016Z,1.50
2023-02-02T09:34:17.162Z,1.80
2023-02-02T09:36:47.169Z,2.30
2023-02-02T09:39:15.043Z,1.30
2023-02-02T09:41:41.804Z,6.30
2023-02-02T09:44:17.487Z,1.33
2023-02-02T09:47:11.805Z,1.93
2023-02-02T09:50:16.748Z,1.53
2023-02-02T09:52:57.365Z,1.60
2023-02-02T09:55:35.328Z,1.40
2023-02-02T09:58:11.854Z,1.37
2023-02-02T10:00:42.436Z,1.30
2023-02-02T10:03:24.475Z,1.97
2023-02-02T10:06:00.158Z,1.53
2023-02-02T10:08:42.523Z,1.20
2023-02-02T10:11:26.493Z,1.50
2023-02-02T10:13:54.866Z,2.00
2023-02-02T10:16:23.434Z,4.77
2023-02-02T10:18:50.742Z,1.97
2023-02-02T10:21:41.203Z,1.67
2023-02-02T10:24:17.201Z,2.03
2023-02-02T10:26:50.007Z,1.53
2023-02-02T10:29:26.107Z,1.73
2023-02-02T10:32:02.634Z,1.93
2023-02-02T10:34:43.999Z,2.67
2023-02-02T10:37:15.811Z,1.90
2023-02-02T10:40:14.976Z,1.50
2023-02-02T10:43:24.538Z,1.60
2023-02-02T10:45:53.062Z,1.53
2023-02-02T10:48:29.168Z,1.30
2023-02-02T10:51:00.179Z,1.63
2023-02-02T10:53:33.254Z,2.40
2023-02-02T10:56:12.047Z,2.00
2023-02-02T10:58:46.908Z,1.83
2023-02-02T11:01:17.967Z,2.07
2023-02-02T11:03:44.963Z,1.60
2023-02-02T11:06:32.656Z,1.37
2023-02-02T11:09:01.530Z,2.30
2023-02-02T11:11:47.316Z,1.63
2023-02-02T11:14:44.568Z,1.80
2023-02-02T11:17:23.470Z,1.63
2023-02-02T11:19:51.689Z,1.50
2023-02-02T11:22:32.491Z,1.60
2023-02-02T11:25:28.426Z,2.17
2023-02-02T11:27:56.901Z,1.17
2023-02-02T11:30:37.267Z,1.33
2023-02-02T11:33:35.420Z,1.50
2023-02-02T11:36:08.064Z,1.23
2023-02-02T11:38:38.162Z,1.83
2023-02-02T11:41:09.119Z,2.17
2023-02-02T11:43:48.496Z,1.43
2023-02-02T11:46:19.937Z,1.20
2023-02-02T11:48:58.802Z,1.70
2023-02-02T11:51:29.074Z,1.50
2023-02-02T11:54:16.148Z,1.80
2023-02-02T11:56:46.576Z,1.40
2023-02-02T11:59:35.294Z,1.20
2023-02-02T12:02:20.195Z,1.30
2023-02-02T12:04:48.745Z,1.20
2023-02-02T12:07:32.519Z,1.40
2023-02-02T12:10:03.416Z,1.30
2023-02-02T12:12:55.593Z,1.53
2023-02-02T12:15:32.758Z,1.70
2023-02-02T12:18:08.409Z,2.13
2023-02-02T12:20:56.471Z,1.93
2023-02-02T12:23:44.340Z,1.37
2023-02-02T12:26:26.170Z,1.23
2023-02-02T12:29:33.548Z,1.40
2023-02-02T12:32:42.724Z,1.70
2023-02-02T12:35:22.698Z,1.33
2023-02-02T12:38:08.860Z,1.47
2023-02-02T12:41:13.218Z,1.90
2023-02-02T12:43:48.133Z,1.50
2023-02-02T12:46:27.987Z,1.27
2023-02-02T12:49:22.154Z,1.20
2023-02-02T12:52:13.990Z,1.80
2023-02-02T12:54:50.141Z,1.40
2023-02-02T12:57:33.344Z,1.30
2023-02-02T13:00:35.229Z,1.53
2023-02-02T13:03:39.953Z,1.80
2023-02-02T13:06:35.607Z,1.50
2023-02-02T13:09:07.779Z,1.77
2023-02-02T13:11:38.908Z,1.43
2023-02-02T13:14:48.833Z,1.87
2023-02-02T13:17:20.199Z,1.30
2023-02-02T13:19:53.774Z,1.50
2023-02-02T13:22:27.142Z,1.27
2023-02-02T13:24:56.441Z,2.27
2023-02-02T13:27:24.148Z,1.93
2023-02-02T13:30:03.750Z,1.30
2023-02-02T13:32:37.100Z,1.40
2023-02-02T13:35:13.337Z,1.97
2023-02-02T13:37:42.992Z,1.30
2023-02-02T13:40:41.316Z,1.80
2023-02-02T13:43:45.834Z,1.90
2023-02-02T13:46:31.436Z,1.67
2023-02-02T13:49:13.891Z,1.70
2023-02-02T13:52:09.251Z,1.30
2023-02-02T13:55:06.284Z,1.33
2023-02-02T13:57:58.315Z,1.93
2023-02-02T14:00:33.548Z,1.83
2023-02-02T14:03:06.207Z,1.87
2023-02-02T14:05:41.526Z,1.40
2023-02-02T14:08:21.729Z,1.57
2023-02-02T14:11:01.710Z,1.20
2023-02-02T14:14:05.388Z,1.13
2023-02-02T14:16:31.977Z,0.90
2023-02-02T14:19:00.622Z,1.00
2023-02-02T14:21:39.217Z,1.70
2023-02-02T14:24:28.669Z,1.23
2023-02-02T14:27:01.889Z,1.30
2023-02-02T14:29:33.428Z,1.10
2023-02-02T14:32:07.506Z,1.83
2023-02-02T14:34:42.071Z,1.33
2023-02-02T14:37:24.456Z,1.63
2023-02-02T14:40:22.900Z,1.00
2023-02-02T14:43:26.707Z,1.50
2023-02-02T14:46:22.341Z,1.30
2023-02-02T14:48:55.867Z,1.37
2023-02-02T14:51:24.642Z,1.50
2023-02-02T14:53:59.971Z,1.30
2023-02-02T14:56:50.400Z,1.50
2023-02-02T14:59:24.478Z,1.57
2023-02-02T15:02:01.803Z,1.20
2023-02-02T15:04:29.820Z,1.30
2023-02-02T15:07:23.307Z,1.67
2023-02-02T15:09:58.891Z,1.07
2023-02-02T15:12:32.907Z,1.50
2023-02-02T15:15:23.397Z,1.10
2023-02-02T15:18:12.932Z,1.40
2023-02-02T15:20:52.414Z,1.23
2023-02-02T15:23:34.142Z,1.33
2023-02-02T15:26:07.308Z,1.80
2023-02-02T15:28:44.276Z,1.20
2023-02-02T15:31:31.839Z,1.53
2023-02-02T15:34:17.984Z,1.33
2023-02-02T15:36:47.586Z,1.30
2023-02-02T15:39:26.635Z,1.43
2023-02-02T15:42:17.144Z,1.50
2023-02-02T15:44:44.494Z,3.17
2023-02-02T15:47:28.756Z,3.30
2023-02-02T15:49:58.990Z,2.75
2023-02-02T15:52:38.847Z,2.92
2023-02-02T15:55:29.883Z,3.00
2023-02-02T15:57:56.780Z,3.83
2023-02-02T16:00:32.510Z,1.00
2023-02-02T16:03:10.317Z,1.80
2023-02-02T16:05:36.849Z,1.27
2023-02-02T16:08:07.863Z,2.47
2023-02-02T16:10:35.314Z,1.30
2023-02-02T16:13:02.298Z,1.53
2023-02-02T16:15:30.988Z,1.53
2023-02-02T16:18:01.578Z,1.33
2023-02-02T16:20:30.426Z,1.20
2023-02-02T16:23:02.234Z,1.60
2023-02-02T16:25:31.859Z,1.27
2023-02-02T16:28:00.962Z,1.23
2023-02-02T16:30:34.004Z,1.63
2023-02-02T16:33:29.071Z,1.80
2023-02-02T16:35:56.471Z,1.67
2023-02-02T16:38:43.554Z,2.93
2023-02-02T16:41:25.957Z,1.60
2023-02-02T16:43:53.163Z,2.10
2023-02-02T16:46:43.379Z,1.63
2023-02-02T16:49:22.175Z,1.20
2023-02-02T16:52:08.672Z,1.73
2023-02-02T16:54:38.615Z,1.70
2023-02-02T16:57:05.444Z,1.70
2023-02-02T16:59:34.889Z,1.70
2023-02-02T17:02:09.635Z,1.70
2023-02-02T17:04:38.131Z,1.60
2023-02-02T17:07:09.066Z,1.70
2023-02-02T17:09:38.336Z,1.30
2023-02-02T17:12:32.806Z,1.40
2023-02-02T17:15:07.728Z,0.90
2023-02-02T17:17:35.724Z,1.50
2023-02-02T17:20:05.023Z,1.50
2023-02-02T17:22:33.684Z,1.63
2023-02-02T17:25:00.808Z,1.00
2023-02-02T17:27:33.853Z,1.10
2023-02-02T17:30:02.106Z,1.43
2023-02-02T17:32:29.157Z,1.13
2023-02-02T17:34:56.285Z,1.47
2023-02-02T17:37:22.996Z,1.60
2023-02-02T17:39:50.838Z,1.50
2023-02-02T17:42:26.606Z,1.00
2023-02-02T17:44:54.190Z,1.20
2023-02-02T17:47:21.015Z,1.10
2023-02-02T17:49:47.574Z,1.20
2023-02-02T17:52:16.267Z,1.17
2023-02-02T17:54:46.047Z,1.20
2023-02-02T17:57:12.937Z,1.40
2023-02-02T17:59:42.203Z,1.30
2023-02-02T18:02:12.746Z,1.67
2023-02-02T18:04:39.491Z,1.47
2023-02-02T18:07:08.129Z,1.33
2023-02-02T18:09:35.845Z,1.33
2023-02-02T18:12:04.554Z,1.77
2023-02-02T18:14:35.760Z,1.83
2023-02-02T18:17:04.234Z,1.97
2023-02-02T18:19:35.322Z,1.20
2023-02-02T18:22:05.386Z,1.33
2023-02-02T18:24:33.027Z,1.50
2023-02-02T18:27:00.671Z,1.20
2023-02-02T18:29:28.399Z,1.30
2023-02-02T18:31:59.677Z,2.07
2023-02-02T18:34:31.335Z,1.13
2023-02-02T18:37:01.602Z,1.47
2023-02-02T18:39:32.807Z,1.97
2023-02-02T18:42:01.547Z,1.20
2023-02-02T18:44:28.634Z,2.03
2023-02-02T18:46:56.814Z,1.60
2023-02-02T18:49:26.289Z,1.17
2023-02-02T18:51:55.261Z,1.10
2023-02-02T18:54:22.553Z,1.10
2023-02-02T18:56:49.944Z,1.20
2023-02-02T18:59:17.921Z,1.80
2023-02-02T19:01:44.553Z,1.23
2023-02-02T19:04:11.555Z,1.23
2023-02-02T19:06:56.742Z,1.30
2023-02-02T19:09:24.820Z,1.40
2023-02-02T19:11:55.771Z,1.77
2023-02-02T19:14:28.086Z,1.40
2023-02-02T19:16:59.415Z,1.57
2023-02-02T19:19:29.270Z,1.30
2023-02-02T19:21:57.979Z,1.37
2023-02-02T19:24:32.917Z,1.50
2023-02-02T19:27:01.625Z,2.37
2023-02-02T19:29:33.657Z,1.63
2023-02-02T19:32:23.452Z,1.97
2023-02-02T19:34:52.823Z,2.60
2023-02-02T19:37:25.373Z,2.47
2023-02-02T19:40:10.771Z,2.50
2023-02-02T19:42:44.366Z,3.37
2023-02-02T19:45:33.159Z,3.87
2023-02-02T19:48:03.602Z,2.80
2023-02-02T19:50:37.764Z,2.53
2023-02-02T19:53:13.726Z,2.80
2023-02-02T19:55:41.362Z,2.50
2023-02-02T19:58:28.549Z,3.10
2023-02-02T20:00:56.220Z,2.67
2023-02-02T20:03:43.203Z,3.70
2023-02-02T20:06:16.231Z,3.10
2023-02-02T20:08:45.468Z,2.57
2023-02-02T20:11:36.162Z,4.43
2023-02-02T20:14:25.619Z,3.27
2023-02-02T20:16:55.220Z,4.60
2023-02-02T20:19:27.821Z,3.10
2023-02-02T20:21:55.323Z,2.13
2023-02-02T20:24:29.245Z,2.40
2023-02-02T20:26:58.628Z,2.90
2023-02-02T20:29:39.243Z,2.70
2023-02-02T20:32:16.001Z,2.50
2023-02-02T20:34:44.008Z,2.40
2023-02-02T20:37:13.787Z,3.00
2023-02-02T20:39:41.609Z,2.77
2023-02-02T20:42:09.253Z,2.93
2023-02-02T20:44:35.950Z,2.70
2023-02-02T20:47:03.415Z,3.07
2023-02-02T20:49:31.919Z,2.30
2023-02-02T20:52:00.467Z,2.90
2023-02-02T20:54:27.736Z,2.43
2023-02-02T20:56:58.380Z,2.33
2023-02-02T20:59:25.088Z,2.87
2023-02-02T21:01:53.039Z,2.40
2023-02-02T21:04:22.657Z,2.77
2023-02-02T21:06:50.078Z,2.70
2023-02-02T21:09:17.589Z,2.57
2023-02-02T21:11:45.091Z,2.50
2023-02-02T21:14:11.993Z,3.20
2023-02-02T21:16:38.791Z,2.93
2023-02-02T21:19:06.353Z,2.60
2023-02-02T21:21:34.839Z,3.00
2023-02-02T21:24:03.061Z,2.53
2023-02-02T21:26:31.123Z,3.10
2023-02-02T21:29:01.247Z,3.60
2023-02-02T21:31:28.247Z,3.40
2023-02-02T21:33:56.961Z,2.63
2023-02-02T21:36:34.870Z,2.70
2023-02-02T21:39:25.186Z,2.90
2023-02-02T21:42:12.238Z,3.87
2023-02-02T21:44:41.402Z,3.20
2023-02-02T21:47:36.040Z,3.90
2023-02-02T21:50:20.188Z,3.30
2023-02-02T21:52:49.056Z,3.47
2023-02-02T21:55:34.631Z,3.40
2023-02-02T21:58:13.006Z,4.10
2023-02-02T22:00:39.588Z,3.83
2023-02-02T22:03:24.987Z,5.00
2023-02-02T22:05:51.905Z,4.30
2023-02-02T22:08:31.734Z,3.67
2023-02-02T22:10:58.517Z,3.63
2023-02-02T22:13:26.842Z,4.63
2023-02-02T22:15:54.858Z,3.50
2023-02-02T22:18:24.548Z,4.20
2023-02-02T22:20:53.013Z,3.80
2023-02-02T22:23:21.687Z,3.83
2023-02-02T22:25:51.622Z,4.70
2023-02-02T22:28:24.776Z,3.97
2023-02-02T22:30:52.627Z,4.00
2023-02-02T22:33:19.338Z,4.47
2023-02-02T22:35:46.601Z,4.67
2023-02-02T22:38:18.558Z,5.33
2023-02-02T22:40:46.750Z,4.97
2023-02-02T22:43:17.251Z,5.77
2023-02-02T22:45:46.885Z,5.60
2023-02-02T22:48:15.023Z,5.50
2023-02-02T22:50:41.872Z,5.00
2023-02-02T22:53:09.168Z,7.83
2023-02-02T22:55:35.850Z,4.90
2023-02-02T22:58:02.362Z,4.90
2023-02-02T23:00:31.261Z,4.93
2023-02-02T23:02:58.996Z,4.60
2023-02-02T23:05:29.773Z,4.23
2023-02-02T23:07:57.679Z,7.67
2023-02-02T23:10:27.740Z,4.70
2023-02-02T23:12:58.796Z,3.60
2023-02-02T23:15:28.953Z,4.00
2023-02-02T23:17:55.411Z,3.60
2023-02-02T23:20:22.260Z,4.23
2023-02-02T23:22:50.452Z,4.90
2023-02-02T23:25:18.745Z,3.80
2023-02-02T23:27:45.672Z,3.53
2023-02-02T23:30:14.764Z,4.10
2023-02-02T23:32:41.750Z,4.07
2023-02-02T23:35:10.743Z,3.90
2023-02-02T23:37:37.930Z,5.30
2023-02-02T23:40:09.574Z,4.20
2023-02-02T23:42:39.129Z,5.03
2023-02-02T23:45:06.026Z,5.10
2023-02-02T23:47:34.196Z,4.70
2023-02-02T23:50:04.348Z,4.20
2023-02-02T23:52:33.053Z,3.40
2023-02-02T23:55:00.402Z,4.50
2023-02-02T23:57:28.707Z,3.53
2023-02-02T23:59:55.424Z,4.10
